Airfield :
LOGIN :

Register | Disclaimer

   EN    FR    IT 

 










Legend :    VFR   Marginal VFR   IFR   Intensive IFR   Very Intensive IFR
Visi :
Ceiling :
>= 8 km
>= 3000ft
5 to 8 km
1000 to 3000 ft
1500m to 5 km
500 to 1000 ft
800 to 1500m
200 to 500 ft
< 800m
< 200 ft
Symbols :   Thunderstorms  Fog  Heavy snow  Heavy precipitations  Wind > 20 kt
SIGMETs :     Misc.  Thunderstorms  Icing  Turbulence  Mountain Waves  Volcanic Ashes







- Airport Elevation : 1411 ft
- IATA code : GVA


LSGG - Genève Cointrin

CURRENT METAR :
  • 221820Z VRB01KT CAVOK 16/11 Q1021 NOSIG

EXPIRED METARs :
  • 221750Z 02002KT 9999 FEW080 SCT140 16/11 Q1021 NOSIG
  • 221720Z 36003KT 9999 FEW080 BKN240 18/12 Q1021 NOSIG
  • 221650Z 04003KT 360V100 9999 FEW080 BKN240 19/11 Q1021 NOSIG
  • 221620Z 03004KT 010V070 9999 FEW080 BKN240 19/11 Q1021 NOSIG
  • 221550Z 07004KT 030V090 9999 FEW080 BKN240 19/11 Q1021 NOSIG

TAF TAF LSGG
Valid from the 22 at 18:00 until the 24 at 00:00 UTC


221725Z 2218/2324 VRB03KT CAVOK TX21/2315Z TN08/2305Z
BECMG 2309/2311 05007KT
ATIS : +41 22 417 40 81
No reported NOTAMs for that airfield.



MET'MAP, your aeronautical weather chart ! - Copyright ORBIFLY December 2007 - Disclaimer

ORBIFLY MET'MAP TEAM :

Programming & Development : Alexandra Zaïnal
Concept & Development : Baudouin d'Aumeries
Co-Development & Prog : Marc-Olivier Méhu
Technical & hardware support : Manuel Goepfert

Contact : metmap@orbifly.com




SOURCES & CREDITS :

   NOAA